Time;durP1;ratioP1;P1;durP2;ratioP2;P2;SDS_P1;SDS_P2;PMS_P1;PMS_P2;Temp;Humidity;BMP_temperature;BMP_pressure;BME280_temperature;BME280_humidity;BME280_pressure;Samples;Min_cycle;Max_cycle;Signal;HPM_P1;HPM_P2
2023/08/14 00:01:21;;;;;;;3.83;3.53;;;;;;;;;;5004152;28;20610;-83
2023/08/14 00:03:48;;;;;;;4.77;3.50;;;;;;;;;;5019785;28;20217;-84
2023/08/14 00:06:14;;;;;;;4.27;3.77;;;;;;;;;;5019526;28;20213;-84
2023/08/14 00:08:40;;;;;;;4.13;3.40;;;;;;;;;;5016709;28;20193;-84
2023/08/14 00:11:06;;;;;;;3.40;3.10;;;;;;;;;;5014924;28;20186;-84
2023/08/14 00:13:48;;;;;;;3.93;3.20;;;;;;;;;;5034641;28;20205;-84
2023/08/14 00:16:14;;;;;;;5.53;3.50;;;;;;;;;;5017392;28;20189;-83
2023/08/14 00:18:40;;;;;;;5.07;3.43;;;;;;;;;;5017838;28;20181;-84
2023/08/14 00:21:06;;;;;;;4.37;3.20;;;;;;;;;;5035771;28;20182;-84
2023/08/14 00:23:32;;;;;;;7.03;3.20;;;;;;;;;;5018404;28;20206;-84
2023/08/14 00:25:58;;;;;;;3.47;3.00;;;;;;;;;;5001666;28;20687;-84
2023/08/14 00:28:25;;;;;;;3.40;2.87;;;;;;;;;;5001519;28;20186;-84
2023/08/14 00:30:51;;;;;;;4.03;2.97;;;;;;;;;;5015965;28;20274;-84
2023/08/14 00:33:17;;;;;;;4.07;3.10;;;;;;;;;;5032830;28;20212;-83
2023/08/14 00:35:43;;;;;;;4.93;3.57;;;;;;;;;;5015960;28;20185;-84
2023/08/14 00:38:09;;;;;;;5.47;3.47;;;;;;;;;;4998194;28;20557;-83
2023/08/14 00:40:36;;;;;;;4.20;3.43;;;;;;;;;;5015142;28;20186;-84
2023/08/14 00:43:02;;;;;;;3.80;3.30;;;;;;;;;;4999114;28;20241;-83
2023/08/14 00:45:33;;;;;;;6.43;3.20;;;;;;;;;;5030555;28;20260;-84
2023/08/14 00:48:00;;;;;;;4.90;2.70;;;;;;;;;;5033990;28;20763;-83
2023/08/14 00:50:26;;;;;;;4.10;2.87;;;;;;;;;;5019079;28;20178;-83
2023/08/14 00:52:55;;;;;;;4.47;2.80;;;;;;;;;;5000758;28;20264;-84
2023/08/14 00:55:23;;;;;;;4.53;3.03;;;;;;;;;;5013740;28;20206;-84
2023/08/14 00:57:51;;;;;;;4.00;3.30;;;;;;;;;;4998633;28;20178;-83
2023/08/14 01:00:17;;;;;;;4.20;3.10;;;;;;;;;;5014560;28;20186;-84
2023/08/14 01:02:43;;;;;;;5.63;3.47;;;;;;;;;;5014080;23;20223;-80
2023/08/14 01:05:10;;;;;;;3.27;2.97;;;;;;;;;;4971949;28;20237;-80
2023/08/14 01:07:38;;;;;;;7.03;2.90;;;;;;;;;;4999650;28;20199;-80
2023/08/14 01:10:04;;;;;;;4.23;3.40;;;;;;;;;;4993243;28;20270;-80
2023/08/14 01:12:37;;;;;;;5.10;2.87;;;;;;;;;;4986248;28;20203;-80
2023/08/14 01:15:07;;;;;;;5.87;3.00;;;;;;;;;;4958744;28;20195;-80
2023/08/14 01:17:35;;;;;;;5.93;2.87;;;;;;;;;;4958960;28;20595;-80
2023/08/14 01:20:01;;;;;;;4.87;2.70;;;;;;;;;;4991523;28;20211;-80
2023/08/14 01:22:44;;;;;;;4.73;2.80;;;;;;;;;;4978764;28;20618;-80
2023/08/14 01:25:22;;;;;;;3.57;2.80;;;;;;;;;;4972444;28;20180;-80
2023/08/14 01:27:49;;;;;;;5.60;3.00;;;;;;;;;;4989966;28;20200;-80
2023/08/14 01:30:15;;;;;;;2.93;2.30;;;;;;;;;;4972204;28;20647;-80
2023/08/14 01:32:41;;;;;;;3.83;2.80;;;;;;;;;;4991299;28;20572;-80
2023/08/14 01:35:08;;;;;;;2.73;2.53;;;;;;;;;;4956261;28;20200;-80
2023/08/14 01:37:55;;;;;;;5.67;2.60;;;;;;;;;;4972848;28;20223;-80
2023/08/14 01:40:27;;;;;;;4.90;2.87;;;;;;;;;;4969768;28;20184;-80
2023/08/14 01:42:58;;;;;;;4.63;2.70;;;;;;;;;;4988979;28;20255;-80
2023/08/14 01:45:25;;;;;;;2.50;2.30;;;;;;;;;;4989688;28;20191;-80
2023/08/14 01:47:53;;;;;;;4.50;2.60;;;;;;;;;;4955569;28;20207;-80
2023/08/14 01:50:21;;;;;;;4.30;2.50;;;;;;;;;;4989625;28;20176;-80
2023/08/14 01:52:48;;;;;;;5.87;2.70;;;;;;;;;;4989768;28;20288;-81
2023/08/14 01:55:14;;;;;;;3.57;2.30;;;;;;;;;;4956344;28;20606;-81
2023/08/14 01:57:40;;;;;;;4.53;2.60;;;;;;;;;;4956541;28;20196;-80
2023/08/14 02:00:09;;;;;;;4.83;2.80;;;;;;;;;;4973518;28;20249;-80
2023/08/14 02:02:38;;;;;;;3.83;2.70;;;;;;;;;;4972436;28;20227;-81
2023/08/14 02:05:05;;;;;;;3.97;2.97;;;;;;;;;;4973530;28;20190;-80
2023/08/14 02:07:31;;;;;;;3.00;2.60;;;;;;;;;;4989179;28;20204;-81
2023/08/14 02:09:57;;;;;;;4.07;2.60;;;;;;;;;;4955688;28;20188;-81
2023/08/14 02:12:23;;;;;;;3.53;2.73;;;;;;;;;;4988487;28;20200;-80
2023/08/14 02:14:49;;;;;;;4.37;2.40;;;;;;;;;;4970995;28;20183;-80
2023/08/14 02:17:17;;;;;;;6.47;2.40;;;;;;;;;;4971784;28;20200;-80
2023/08/14 02:19:43;;;;;;;3.90;2.43;;;;;;;;;;4989838;28;20705;-80
2023/08/14 02:22:09;;;;;;;6.47;3.00;;;;;;;;;;4963098;28;20614;-80
2023/08/14 02:24:35;;;;;;;3.70;2.90;;;;;;;;;;4956504;28;20191;-81
2023/08/14 02:27:03;;;;;;;4.90;2.60;;;;;;;;;;4971556;28;20228;-80
2023/08/14 02:29:30;;;;;;;5.40;2.93;;;;;;;;;;4988162;28;20187;-80
2023/08/14 02:31:56;;;;;;;3.90;2.60;;;;;;;;;;4969958;28;20184;-80
2023/08/14 02:34:42;;;;;;;4.00;2.50;;;;;;;;;;4992285;28;20236;-80
2023/08/14 02:37:08;;;;;;;5.27;2.70;;;;;;;;;;4958631;28;20216;-80
2023/08/14 02:39:34;;;;;;;3.77;2.50;;;;;;;;;;4992514;28;20186;-80
2023/08/14 02:42:00;;;;;;;4.07;2.60;;;;;;;;;;4974328;28;20192;-80
2023/08/14 02:44:26;;;;;;;5.97;2.83;;;;;;;;;;4973087;28;20195;-80
2023/08/14 02:46:53;;;;;;;3.00;2.40;;;;;;;;;;4962277;28;20211;-80
2023/08/14 02:49:20;;;;;;;4.03;2.80;;;;;;;;;;4959422;28;20184;-80
2023/08/14 02:51:46;;;;;;;3.03;2.73;;;;;;;;;;4974630;28;20176;-80
2023/08/14 02:54:12;;;;;;;4.73;2.87;;;;;;;;;;4978013;28;20210;-80
2023/08/14 02:56:38;;;;;;;4.10;3.10;;;;;;;;;;4975792;28;20259;-80
2023/08/14 02:59:04;;;;;;;4.20;3.10;;;;;;;;;;4978377;28;20191;-80
2023/08/14 03:01:30;;;;;;;2.90;2.70;;;;;;;;;;4978076;28;20253;-80
2023/08/14 03:03:56;;;;;;;3.40;2.87;;;;;;;;;;4977192;28;20694;-80
2023/08/14 03:06:23;;;;;;;3.27;2.90;;;;;;;;;;4995028;28;20782;-80
2023/08/14 03:08:50;;;;;;;3.97;3.00;;;;;;;;;;4961375;28;20183;-80
2023/08/14 03:11:16;;;;;;;4.20;2.90;;;;;;;;;;4975882;28;20180;-81
2023/08/14 03:13:42;;;;;;;5.03;2.93;;;;;;;;;;4993457;28;20203;-80
2023/08/14 03:16:09;;;;;;;4.03;3.07;;;;;;;;;;4993213;28;20187;-80
2023/08/14 03:18:35;;;;;;;6.03;3.20;;;;;;;;;;4977372;28;20187;-80
2023/08/14 03:21:01;;;;;;;4.57;3.37;;;;;;;;;;4973894;28;20196;-80
2023/08/14 03:23:27;;;;;;;4.40;3.40;;;;;;;;;;4956450;28;20215;-80
2023/08/14 03:25:54;;;;;;;4.63;3.20;;;;;;;;;;4976073;28;20208;-80
2023/08/14 03:28:20;;;;;;;3.80;3.13;;;;;;;;;;4975618;28;20214;-80
2023/08/14 03:30:48;;;;;;;4.23;3.07;;;;;;;;;;4959319;28;20203;-80
2023/08/14 03:33:15;;;;;;;4.93;3.10;;;;;;;;;;4974859;28;20235;-80
2023/08/14 03:35:41;;;;;;;5.27;2.97;;;;;;;;;;4959954;28;20191;-80
2023/08/14 03:38:07;;;;;;;5.47;2.93;;;;;;;;;;4993099;28;20246;-80
2023/08/14 03:40:33;;;;;;;3.33;2.80;;;;;;;;;;4976162;28;20238;-80
2023/08/14 03:42:59;;;;;;;3.93;2.80;;;;;;;;;;4975878;28;20238;-80
2023/08/14 03:45:26;;;;;;;4.97;2.90;;;;;;;;;;4958568;28;20218;-80
2023/08/14 03:47:54;;;;;;;4.57;2.97;;;;;;;;;;4991117;28;20234;-80
2023/08/14 03:50:20;;;;;;;6.97;3.10;;;;;;;;;;4974014;28;20179;-80
2023/08/14 03:52:46;;;;;;;4.20;2.90;;;;;;;;;;4973084;28;20219;-80
2023/08/14 03:55:12;;;;;;;3.67;3.37;;;;;;;;;;4973455;28;20531;-81
2023/08/14 03:57:38;;;;;;;7.00;3.50;;;;;;;;;;4992633;28;20192;-81
2023/08/14 04:00:06;;;;;;;4.37;3.03;;;;;;;;;;4975505;28;20206;-81
2023/08/14 04:02:38;;;;;;;3.97;3.00;;;;;;;;;;4962612;28;20231;-80
2023/08/14 04:05:05;;;;;;;4.83;3.10;;;;;;;;;;4974792;28;20215;-80
2023/08/14 04:07:31;;;;;;;4.00;2.80;;;;;;;;;;4960158;28;20570;-80
2023/08/14 04:09:58;;;;;;;3.17;2.87;;;;;;;;;;4976093;28;20547;-80
2023/08/14 04:12:24;;;;;;;4.73;2.83;;;;;;;;;;4975408;28;20282;-80
2023/08/14 04:14:51;;;;;;;4.03;3.00;;;;;;;;;;4974631;28;20203;-80
2023/08/14 04:17:17;;;;;;;4.13;3.33;;;;;;;;;;4974588;28;20610;-80
2023/08/14 04:19:43;;;;;;;4.07;3.20;;;;;;;;;;4974566;28;20706;-80
2023/08/14 04:22:09;;;;;;;4.90;2.90;;;;;;;;;;4973056;28;20283;-81
2023/08/14 04:24:35;;;;;;;4.30;3.40;;;;;;;;;;4991913;28;20207;-80
2023/08/14 04:27:01;;;;;;;3.80;3.20;;;;;;;;;;4973588;28;20212;-80
2023/08/14 04:29:27;;;;;;;4.43;3.27;;;;;;;;;;4973266;28;20188;-80
2023/08/14 04:31:54;;;;;;;5.33;3.40;;;;;;;;;;4990690;28;20184;-80
2023/08/14 04:34:20;;;;;;;4.50;3.20;;;;;;;;;;4976762;28;20221;-80
2023/08/14 04:36:50;;;;;;;4.93;3.50;;;;;;;;;;4974827;28;20264;-80
2023/08/14 04:39:17;;;;;;;4.40;3.53;;;;;;;;;;4960115;28;20207;-80
2023/08/14 04:41:44;;;;;;;4.07;3.23;;;;;;;;;;4975586;28;20188;-80
2023/08/14 04:44:10;;;;;;;4.97;3.37;;;;;;;;;;4971948;28;20199;-80
2023/08/14 04:46:38;;;;;;;4.60;3.67;;;;;;;;;;4960138;28;20303;-80
2023/08/14 04:49:05;;;;;;;4.47;3.60;;;;;;;;;;4974462;28;20203;-80
2023/08/14 04:51:32;;;;;;;5.03;3.40;;;;;;;;;;4973287;28;20606;-80
2023/08/14 04:53:59;;;;;;;4.93;3.30;;;;;;;;;;4956974;28;20249;-80
2023/08/14 04:56:25;;;;;;;6.83;3.40;;;;;;;;;;4975606;28;20666;-80
2023/08/14 04:58:52;;;;;;;4.87;3.10;;;;;;;;;;4958948;28;20278;-80
2023/08/14 05:01:19;;;;;;;6.40;3.03;;;;;;;;;;4943174;28;20194;-80
2023/08/14 05:03:47;;;;;;;4.83;3.00;;;;;;;;;;4978097;28;20270;-80
2023/08/14 05:06:14;;;;;;;3.70;3.10;;;;;;;;;;4989920;28;20206;-80
2023/08/14 05:08:45;;;;;;;5.60;3.00;;;;;;;;;;4987476;28;20589;-80
2023/08/14 05:11:11;;;;;;;4.10;3.07;;;;;;;;;;4980165;28;20255;-79
2023/08/14 05:13:40;;;;;;;5.97;3.20;;;;;;;;;;4999807;28;20207;-82
2023/08/14 05:16:06;;;;;;;6.67;3.53;;;;;;;;;;4965457;28;20210;-80
2023/08/14 05:18:32;;;;;;;6.23;3.30;;;;;;;;;;4963065;28;20263;-79
2023/08/14 05:20:59;;;;;;;4.00;3.60;;;;;;;;;;4978252;28;20274;-80
2023/08/14 05:23:25;;;;;;;4.57;3.73;;;;;;;;;;4976267;28;20637;-79
2023/08/14 05:25:51;;;;;;;4.40;3.50;;;;;;;;;;4956478;28;20648;-78
2023/08/14 05:28:17;;;;;;;6.77;3.90;;;;;;;;;;4955968;28;20630;-78
2023/08/14 05:30:45;;;;;;;5.13;3.70;;;;;;;;;;4989954;28;20325;-78
2023/08/14 05:33:11;;;;;;;7.47;4.00;;;;;;;;;;4973378;28;20690;-78
2023/08/14 05:35:39;;;;;;;6.57;3.93;;;;;;;;;;4991282;28;20576;-79
2023/08/14 05:38:05;;;;;;;4.47;3.57;;;;;;;;;;4990443;28;20187;-79
2023/08/14 05:40:31;;;;;;;4.67;4.00;;;;;;;;;;4990250;28;20183;-79
2023/08/14 05:43:11;;;;;;;5.13;4.00;;;;;;;;;;4989458;28;20584;-78
2023/08/14 05:45:44;;;;;;;6.23;3.70;;;;;;;;;;4987988;28;20777;-80
2023/08/14 05:48:11;;;;;;;5.63;3.67;;;;;;;;;;4989974;28;20210;-80
2023/08/14 05:50:37;;;;;;;4.03;3.43;;;;;;;;;;4988699;28;20275;-80
2023/08/14 05:53:04;;;;;;;4.73;3.80;;;;;;;;;;4989491;28;20286;-79
2023/08/14 05:55:41;;;;;;;5.30;4.00;;;;;;;;;;4990420;28;20533;-79
2023/08/14 05:58:08;;;;;;;4.27;3.87;;;;;;;;;;4972533;28;20689;-79
2023/08/14 06:00:35;;;;;;;5.67;4.10;;;;;;;;;;4991190;28;20275;-79
2023/08/14 06:03:01;;;;;;;5.07;3.70;;;;;;;;;;4970850;28;20257;-80
2023/08/14 06:05:28;;;;;;;5.17;3.83;;;;;;;;;;4970596;28;20244;-79
2023/08/14 06:07:54;;;;;;;5.40;4.33;;;;;;;;;;4968212;28;20212;-80
2023/08/14 06:10:21;;;;;;;4.07;3.57;;;;;;;;;;4990028;28;20180;-80
2023/08/14 06:12:50;;;;;;;4.23;3.83;;;;;;;;;;4987715;28;20725;-80
2023/08/14 06:15:18;;;;;;;4.33;3.93;;;;;;;;;;4987655;28;20196;-81
2023/08/14 06:17:44;;;;;;;6.63;3.90;;;;;;;;;;4971459;28;20543;-80
2023/08/14 06:20:11;;;;;;;5.67;4.40;;;;;;;;;;4972706;28;20199;-80
2023/08/14 06:22:44;;;;;;;4.33;3.93;;;;;;;;;;4953566;28;20551;-80
2023/08/14 06:25:11;;;;;;;6.33;4.13;;;;;;;;;;4970897;28;20195;-80
2023/08/14 06:27:38;;;;;;;11.10;4.40;;;;;;;;;;4971601;28;20363;-80
2023/08/14 06:30:04;;;;;;;4.67;4.00;;;;;;;;;;4991223;28;20702;-80
2023/08/14 06:32:31;;;;;;;6.03;4.43;;;;;;;;;;4971264;28;20208;-80
2023/08/14 06:34:57;;;;;;;7.07;5.00;;;;;;;;;;4972585;28;20188;-80
2023/08/14 06:37:23;;;;;;;6.27;4.67;;;;;;;;;;4974359;28;20197;-80
2023/08/14 06:39:49;;;;;;;6.37;4.87;;;;;;;;;;4984243;28;20251;-80
2023/08/14 06:42:16;;;;;;;4.83;4.27;;;;;;;;;;4990441;28;20652;-80
2023/08/14 06:44:42;;;;;;;8.00;4.70;;;;;;;;;;4976209;28;20287;-80
2023/08/14 06:47:08;;;;;;;6.27;4.23;;;;;;;;;;4957126;28;20227;-80
2023/08/14 06:49:34;;;;;;;7.33;4.90;;;;;;;;;;4989512;28;20185;-80
2023/08/14 06:52:01;;;;;;;7.00;5.43;;;;;;;;;;4989471;28;20210;-80
2023/08/14 06:54:28;;;;;;;7.60;5.77;;;;;;;;;;4972497;28;20565;-80
2023/08/14 06:56:54;;;;;;;7.60;6.37;;;;;;;;;;4975381;28;20255;-80
2023/08/14 06:59:20;;;;;;;6.37;5.77;;;;;;;;;;4974541;28;20644;-80
2023/08/14 07:01:46;;;;;;;6.83;4.97;;;;;;;;;;4990501;28;20278;-80
2023/08/14 07:04:12;;;;;;;10.23;5.70;;;;;;;;;;5060204;23;20280;-78
2023/08/14 07:06:38;;;;;;;7.33;5.60;;;;;;;;;;5032365;28;20590;-78
2023/08/14 07:09:04;;;;;;;7.23;5.43;;;;;;;;;;5042599;28;20180;-78
2023/08/14 07:11:36;;;;;;;6.57;5.13;;;;;;;;;;5045586;28;20190;-78
2023/08/14 07:14:03;;;;;;;5.77;4.60;;;;;;;;;;5046996;28;20719;-79
2023/08/14 07:16:29;;;;;;;5.50;5.00;;;;;;;;;;5046820;28;20269;-79
2023/08/14 07:18:55;;;;;;;5.90;4.20;;;;;;;;;;5048634;28;20183;-78
2023/08/14 07:21:21;;;;;;;8.27;4.70;;;;;;;;;;5013565;28;20245;-80
2023/08/14 07:23:47;;;;;;;7.13;4.37;;;;;;;;;;5044741;28;20195;-78
2023/08/14 07:26:13;;;;;;;7.63;5.10;;;;;;;;;;5029928;28;20277;-78
2023/08/14 07:28:40;;;;;;;5.17;4.67;;;;;;;;;;5029541;28;20704;-79
2023/08/14 07:31:07;;;;;;;5.67;4.20;;;;;;;;;;5031652;28;20190;-78
2023/08/14 07:33:33;;;;;;;5.20;4.70;;;;;;;;;;5022696;28;20689;-78
2023/08/14 07:35:59;;;;;;;8.37;4.70;;;;;;;;;;5048381;28;20237;-79
2023/08/14 07:38:26;;;;;;;6.37;5.07;;;;;;;;;;5051497;28;20539;-79
2023/08/14 07:40:52;;;;;;;5.50;5.00;;;;;;;;;;5031531;28;20184;-78
2023/08/14 07:43:18;;;;;;;6.63;5.27;;;;;;;;;;5032437;28;20204;-79
2023/08/14 07:45:44;;;;;;;8.70;5.60;;;;;;;;;;5032008;28;20191;-79
2023/08/14 07:48:11;;;;;;;5.00;4.50;;;;;;;;;;5050360;28;20649;-78
2023/08/14 07:50:37;;;;;;;7.17;5.03;;;;;;;;;;5028821;28;20179;-78
2023/08/14 07:53:03;;;;;;;4.80;4.30;;;;;;;;;;5043201;28;20209;-78
2023/08/14 07:55:30;;;;;;;5.27;4.33;;;;;;;;;;5050417;28;20176;-79
2023/08/14 07:57:56;;;;;;;6.33;4.70;;;;;;;;;;5028469;28;20267;-78
2023/08/14 08:00:22;;;;;;;4.93;4.40;;;;;;;;;;5013504;28;20188;-78
2023/08/14 08:02:48;;;;;;;5.90;4.40;;;;;;;;;;5049746;28;20290;-78
2023/08/14 08:05:15;;;;;;;6.27;4.10;;;;;;;;;;5044055;28;20261;-78
2023/08/14 08:07:41;;;;;;;7.13;4.33;;;;;;;;;;5033961;28;20197;-79
2023/08/14 08:10:07;;;;;;;4.40;4.00;;;;;;;;;;5030007;28;20240;-79
2023/08/14 08:12:34;;;;;;;6.63;3.80;;;;;;;;;;5047198;28;20182;-78
2023/08/14 08:15:00;;;;;;;4.03;3.63;;;;;;;;;;5048332;28;20189;-78
2023/08/14 08:17:26;;;;;;;4.23;3.17;;;;;;;;;;5032133;28;20178;-79
2023/08/14 08:19:52;;;;;;;4.57;3.50;;;;;;;;;;5027795;28;20561;-79
2023/08/14 08:22:18;;;;;;;6.30;3.90;;;;;;;;;;5050566;28;20539;-79
2023/08/14 08:24:45;;;;;;;6.43;3.80;;;;;;;;;;5032204;28;20291;-79
2023/08/14 08:27:11;;;;;;;4.20;3.43;;;;;;;;;;5032214;28;20296;-79
2023/08/14 08:29:37;;;;;;;3.73;3.20;;;;;;;;;;5047305;28;20265;-79
2023/08/14 08:32:04;;;;;;;3.07;2.87;;;;;;;;;;5000629;28;20293;-79
2023/08/14 08:34:30;;;;;;;4.87;3.50;;;;;;;;;;5048440;28;20209;-80
2023/08/14 08:36:56;;;;;;;4.27;3.40;;;;;;;;;;5051312;28;20204;-79
2023/08/14 08:39:22;;;;;;;5.47;3.77;;;;;;;;;;5053057;28;20182;-80
2023/08/14 08:41:49;;;;;;;5.13;3.30;;;;;;;;;;5050597;28;20190;-80
2023/08/14 08:44:22;;;;;;;3.93;3.50;;;;;;;;;;5040442;28;20284;-79
2023/08/14 08:46:51;;;;;;;4.70;3.67;;;;;;;;;;5050251;28;20220;-80
2023/08/14 08:49:17;;;;;;;4.23;3.40;;;;;;;;;;5048343;28;20642;-79
2023/08/14 08:51:45;;;;;;;4.47;3.63;;;;;;;;;;5053056;28;20201;-78
2023/08/14 08:54:14;;;;;;;3.47;2.97;;;;;;;;;;5047588;28;20237;-77
2023/08/14 08:56:41;;;;;;;4.33;3.50;;;;;;;;;;5042254;28;20299;-74
2023/08/14 08:59:09;;;;;;;3.80;3.40;;;;;;;;;;5046137;28;20264;-76
2023/08/14 09:01:35;;;;;;;4.93;3.40;;;;;;;;;;5049952;28;20260;-77
2023/08/14 09:04:01;;;;;;;3.87;3.07;;;;;;;;;;5042566;28;20305;-77
2023/08/14 09:06:28;;;;;;;4.50;3.60;;;;;;;;;;5016626;28;20189;-76
2023/08/14 09:08:54;;;;;;;4.83;3.10;;;;;;;;;;5046851;28;20196;-76
2023/08/14 09:11:20;;;;;;;5.87;3.20;;;;;;;;;;5045776;28;20185;-75
2023/08/14 09:13:46;;;;;;;4.73;3.00;;;;;;;;;;5042071;28;20203;-76
2023/08/14 09:16:16;;;;;;;3.80;3.40;;;;;;;;;;5032966;28;20226;-76
2023/08/14 09:18:46;;;;;;;4.20;3.60;;;;;;;;;;5028935;28;20193;-76
2023/08/14 09:21:12;;;;;;;4.70;3.40;;;;;;;;;;5032888;28;20235;-76
2023/08/14 09:23:39;;;;;;;4.53;3.57;;;;;;;;;;5048397;28;20197;-76
2023/08/14 09:26:05;;;;;;;4.40;3.30;;;;;;;;;;5048656;28;20233;-78
2023/08/14 09:28:32;;;;;;;3.73;3.23;;;;;;;;;;5049566;28;20212;-77
2023/08/14 09:31:13;;;;;;;3.93;3.53;;;;;;;;;;5049952;28;20181;-76
2023/08/14 09:33:48;;;;;;;3.60;3.30;;;;;;;;;;5049481;28;20204;-77
2023/08/14 09:36:14;;;;;;;5.17;3.37;;;;;;;;;;5046451;28;20226;-76
2023/08/14 09:38:41;;;;;;;3.70;3.40;;;;;;;;;;5043740;28;20660;-76
2023/08/14 09:41:07;;;;;;;3.50;3.20;;;;;;;;;;5049515;28;20181;-76
2023/08/14 09:43:34;;;;;;;3.83;3.43;;;;;;;;;;5041743;28;20320;-76
2023/08/14 09:46:01;;;;;;;4.67;3.30;;;;;;;;;;5049439;28;20190;-76
2023/08/14 09:48:41;;;;;;;3.73;3.43;;;;;;;;;;5049650;28;20202;-76
2023/08/14 09:51:10;;;;;;;2.97;2.77;;;;;;;;;;5007580;28;20249;-76
2023/08/14 09:53:44;;;;;;;3.90;3.03;;;;;;;;;;5044139;28;20255;-78
2023/08/14 09:56:11;;;;;;;3.63;3.00;;;;;;;;;;5049164;28;20188;-76
2023/08/14 09:58:37;;;;;;;3.57;3.20;;;;;;;;;;5040724;28;20650;-76
2023/08/14 10:01:04;;;;;;;4.53;3.40;;;;;;;;;;5048066;28;20186;-76
2023/08/14 10:03:33;;;;;;;3.57;3.27;;;;;;;;;;5050005;28;20647;-77
2023/08/14 10:05:59;;;;;;;5.13;3.57;;;;;;;;;;5035239;28;20240;-77
2023/08/14 10:08:25;;;;;;;5.37;3.33;;;;;;;;;;5050376;28;20207;-76
2023/08/14 10:10:51;;;;;;;4.00;3.20;;;;;;;;;;5050618;28;20209;-76
2023/08/14 10:13:18;;;;;;;3.50;3.20;;;;;;;;;;5034990;28;20288;-76
2023/08/14 10:15:47;;;;;;;4.27;3.17;;;;;;;;;;5047968;28;20187;-77
2023/08/14 10:18:15;;;;;;;3.30;3.07;;;;;;;;;;5053146;28;20609;-76
2023/08/14 10:20:42;;;;;;;4.13;3.00;;;;;;;;;;5053927;28;20244;-77
2023/08/14 10:23:09;;;;;;;3.70;3.30;;;;;;;;;;5053276;28;20598;-76
2023/08/14 10:25:36;;;;;;;3.73;3.10;;;;;;;;;;5049285;28;20220;-76
2023/08/14 10:28:02;;;;;;;5.70;3.73;;;;;;;;;;5052867;28;20212;-76
2023/08/14 10:30:29;;;;;;;3.73;3.43;;;;;;;;;;5053270;28;20179;-77
2023/08/14 10:32:55;;;;;;;4.27;3.70;;;;;;;;;;5052591;28;20242;-77
2023/08/14 10:35:23;;;;;;;3.97;3.50;;;;;;;;;;5054481;28;20655;-77
2023/08/14 10:37:50;;;;;;;3.57;3.00;;;;;;;;;;5036037;28;20185;-81
2023/08/14 10:40:20;;;;;;;3.97;3.27;;;;;;;;;;5035336;28;20181;-76
2023/08/14 10:42:55;;;;;;;5.20;3.00;;;;;;;;;;5048177;28;20202;-80
2023/08/14 10:45:22;;;;;;;4.27;3.40;;;;;;;;;;5049270;28;20191;-78
2023/08/14 10:47:50;;;;;;;4.30;3.33;;;;;;;;;;5034611;28;20224;-79
2023/08/14 10:50:19;;;;;;;3.70;3.37;;;;;;;;;;5044815;28;20235;-77
2023/08/14 10:52:46;;;;;;;3.27;2.97;;;;;;;;;;5030295;28;20564;-78
2023/08/14 10:55:15;;;;;;;5.43;3.43;;;;;;;;;;5034550;28;20600;-79
2023/08/14 10:57:41;;;;;;;3.23;2.93;;;;;;;;;;5052283;28;20213;-78
2023/08/14 11:00:20;;;;;;;4.80;3.50;;;;;;;;;;5056282;28;20186;-81
2023/08/14 11:02:51;;;;;;;3.40;3.10;;;;;;;;;;5017854;28;20212;-81
2023/08/14 11:05:17;;;;;;;3.83;2.93;;;;;;;;;;5042741;28;20646;-83
2023/08/14 11:07:57;;;;;;;4.33;3.30;;;;;;;;;;5033001;28;20214;-77
2023/08/14 11:10:24;;;;;;;3.70;3.10;;;;;;;;;;5045553;28;20629;-80
2023/08/14 11:12:51;;;;;;;3.93;3.20;;;;;;;;;;4998259;28;20650;-80
2023/08/14 11:15:20;;;;;;;3.30;2.83;;;;;;;;;;5032163;28;20184;-80
2023/08/14 11:17:46;;;;;;;4.37;2.67;;;;;;;;;;5032826;28;20647;-80
2023/08/14 11:20:12;;;;;;;2.70;2.50;;;;;;;;;;5052313;28;20178;-80
2023/08/14 11:22:38;;;;;;;3.87;2.53;;;;;;;;;;4989588;28;20429;-80
2023/08/14 11:25:05;;;;;;;2.77;2.57;;;;;;;;;;5051634;28;20569;-81
2023/08/14 11:27:31;;;;;;;3.07;2.33;;;;;;;;;;5049652;28;20210;-77
2023/08/14 11:29:57;;;;;;;3.20;2.57;;;;;;;;;;5034800;28;20177;-77
2023/08/14 11:32:23;;;;;;;2.90;2.67;;;;;;;;;;5034769;28;20175;-77
2023/08/14 11:34:51;;;;;;;2.83;2.60;;;;;;;;;;5052544;28;20830;-78
2023/08/14 11:37:17;;;;;;;2.83;2.50;;;;;;;;;;5053223;28;20186;-77
2023/08/14 11:39:43;;;;;;;2.97;2.67;;;;;;;;;;5033063;28;20694;-77
2023/08/14 11:42:09;;;;;;;3.80;2.50;;;;;;;;;;5033497;28;20195;-78
2023/08/14 11:44:35;;;;;;;2.60;2.40;;;;;;;;;;5038587;28;20204;-77
2023/08/14 11:47:06;;;;;;;4.17;2.67;;;;;;;;;;5054390;28;20219;-78
2023/08/14 11:49:34;;;;;;;3.60;2.50;;;;;;;;;;5052920;28;20264;-78
2023/08/14 11:52:02;;;;;;;2.60;2.40;;;;;;;;;;5023846;28;20205;-82
2023/08/14 11:54:28;;;;;;;2.40;2.20;;;;;;;;;;5032242;28;20261;-78
2023/08/14 11:56:54;;;;;;;2.60;2.37;;;;;;;;;;5047193;28;20181;-78
2023/08/14 11:59:20;;;;;;;3.03;2.40;;;;;;;;;;5048721;28;20211;-79
2023/08/14 12:01:46;;;;;;;3.73;2.10;;;;;;;;;;5049418;28;20184;-80
2023/08/14 12:04:13;;;;;;;3.43;2.37;;;;;;;;;;5028950;28;20300;-79
2023/08/14 12:06:39;;;;;;;3.57;2.20;;;;;;;;;;5033962;28;20197;-79
2023/08/14 12:09:10;;;;;;;2.43;2.23;;;;;;;;;;5019956;28;20675;-81
2023/08/14 12:11:36;;;;;;;3.37;2.20;;;;;;;;;;5032739;28;20183;-81
2023/08/14 12:14:06;;;;;;;3.20;2.47;;;;;;;;;;5033779;28;20200;-81
2023/08/14 12:16:37;;;;;;;2.87;2.50;;;;;;;;;;5016039;28;20230;-82
2023/08/14 12:19:06;;;;;;;2.73;2.37;;;;;;;;;;5017903;28;20185;-81
2023/08/14 12:21:32;;;;;;;2.50;2.30;;;;;;;;;;5020293;28;20601;-81
2023/08/14 12:23:58;;;;;;;2.83;2.60;;;;;;;;;;5036003;28;20205;-80
2023/08/14 12:26:26;;;;;;;2.53;2.33;;;;;;;;;;5034991;28;20193;-81
2023/08/14 12:28:52;;;;;;;2.63;2.43;;;;;;;;;;5032497;28;20225;-81
2023/08/14 12:31:18;;;;;;;2.60;2.37;;;;;;;;;;5032849;28;20192;-81
2023/08/14 12:33:44;;;;;;;3.87;2.50;;;;;;;;;;5034145;28;20282;-81
2023/08/14 12:36:10;;;;;;;2.87;2.30;;;;;;;;;;5051310;28;20181;-81
2023/08/14 12:38:39;;;;;;;2.80;2.43;;;;;;;;;;5002840;28;20192;-81
2023/08/14 12:41:06;;;;;;;2.73;2.50;;;;;;;;;;5046132;28;20260;-81
2023/08/14 12:43:32;;;;;;;3.50;2.60;;;;;;;;;;5022176;28;20211;-81
2023/08/14 12:45:59;;;;;;;3.50;2.77;;;;;;;;;;5048005;28;20270;-81
2023/08/14 12:48:25;;;;;;;3.00;2.73;;;;;;;;;;5031593;28;20213;-81
2023/08/14 12:50:51;;;;;;;3.00;2.40;;;;;;;;;;5029185;28;20180;-80
2023/08/14 12:53:17;;;;;;;4.83;2.60;;;;;;;;;;5031531;28;20640;-81
2023/08/14 12:55:45;;;;;;;3.23;2.87;;;;;;;;;;5032945;28;20190;-80
2023/08/14 12:58:12;;;;;;;4.10;2.90;;;;;;;;;;5019887;28;20685;-81
2023/08/14 13:00:38;;;;;;;4.73;3.13;;;;;;;;;;5003172;28;20542;-81
2023/08/14 13:03:04;;;;;;;3.30;2.87;;;;;;;;;;5057700;22;21471;-84
2023/08/14 13:05:31;;;;;;;3.97;3.10;;;;;;;;;;4999835;28;20185;-84
2023/08/14 13:07:57;;;;;;;4.00;3.03;;;;;;;;;;5001953;28;20213;-84
2023/08/14 13:10:23;;;;;;;4.10;3.13;;;;;;;;;;5031736;28;20209;-86
2023/08/14 13:12:50;;;;;;;5.97;3.10;;;;;;;;;;5013922;28;20182;-85
2023/08/14 13:15:16;;;;;;;5.10;3.10;;;;;;;;;;4988223;28;20190;-85
2023/08/14 13:17:42;;;;;;;3.50;2.73;;;;;;;;;;4992293;28;20214;-80
2023/08/14 13:20:09;;;;;;;6.40;3.33;;;;;;;;;;5002650;28;20558;-80
2023/08/14 13:22:35;;;;;;;5.73;3.20;;;;;;;;;;4999068;28;20186;-80
2023/08/14 13:25:01;;;;;;;4.17;3.00;;;;;;;;;;5014358;28;20665;-80
2023/08/14 13:27:28;;;;;;;3.20;2.90;;;;;;;;;;5010696;28;20218;-80
2023/08/14 13:29:54;;;;;;;3.07;2.60;;;;;;;;;;4997126;28;20179;-80
2023/08/14 13:32:20;;;;;;;3.40;3.10;;;;;;;;;;5010484;28;20194;-80
2023/08/14 13:34:46;;;;;;;3.30;3.00;;;;;;;;;;4996217;28;20199;-80
2023/08/14 13:37:12;;;;;;;3.90;3.07;;;;;;;;;;5003683;28;20185;-80
2023/08/14 13:39:38;;;;;;;3.53;3.23;;;;;;;;;;5008375;28;20195;-80
2023/08/14 13:42:04;;;;;;;3.40;2.73;;;;;;;;;;5011387;28;20558;-80
2023/08/14 13:44:31;;;;;;;3.40;3.10;;;;;;;;;;5010902;28;20203;-80
2023/08/14 13:46:57;;;;;;;4.37;3.17;;;;;;;;;;5010686;28;20299;-80
2023/08/14 13:49:23;;;;;;;4.10;3.10;;;;;;;;;;4993234;28;20287;-80
2023/08/14 13:51:49;;;;;;;5.87;3.10;;;;;;;;;;5010776;28;20213;-80
2023/08/14 13:54:15;;;;;;;4.83;3.40;;;;;;;;;;5002988;28;20220;-80
2023/08/14 13:56:41;;;;;;;4.63;3.30;;;;;;;;;;5010643;28;20198;-80
2023/08/14 13:59:08;;;;;;;4.93;3.30;;;;;;;;;;4990070;28;20193;-79
2023/08/14 14:01:35;;;;;;;4.37;3.23;;;;;;;;;;5010235;28;20196;-79
2023/08/14 14:04:01;;;;;;;4.73;3.17;;;;;;;;;;5010095;28;20686;-79
2023/08/14 14:06:27;;;;;;;4.13;2.93;;;;;;;;;;5010535;28;20185;-79
2023/08/14 14:08:53;;;;;;;3.57;3.13;;;;;;;;;;5008106;28;20223;-80
2023/08/14 14:11:19;;;;;;;5.20;2.90;;;;;;;;;;5014330;28;20218;-79
2023/08/14 14:13:45;;;;;;;3.97;3.10;;;;;;;;;;4994794;28;20206;-80
2023/08/14 14:16:12;;;;;;;3.90;3.27;;;;;;;;;;5009750;28;20179;-80
2023/08/14 14:18:38;;;;;;;3.57;3.00;;;;;;;;;;5010025;28;20241;-80
2023/08/14 14:21:04;;;;;;;3.20;2.90;;;;;;;;;;4992558;28;20191;-80
2023/08/14 14:23:30;;;;;;;6.00;3.40;;;;;;;;;;5008723;28;20203;-79
2023/08/14 14:25:56;;;;;;;3.67;3.20;;;;;;;;;;4991940;28;20241;-79
2023/08/14 14:28:22;;;;;;;3.70;3.30;;;;;;;;;;5006538;28;20206;-79
2023/08/14 14:30:48;;;;;;;5.13;3.60;;;;;;;;;;5007237;28;20579;-79
2023/08/14 14:33:14;;;;;;;4.07;3.10;;;;;;;;;;5003206;28;20235;-79
2023/08/14 14:35:40;;;;;;;3.60;3.30;;;;;;;;;;5010045;28;20464;-81
2023/08/14 14:38:06;;;;;;;3.50;3.20;;;;;;;;;;5008523;28;20196;-81
2023/08/14 14:40:32;;;;;;;4.87;3.00;;;;;;;;;;5007446;28;20193;-82
2023/08/14 14:42:59;;;;;;;4.10;3.10;;;;;;;;;;5006989;28;20214;-82